Rona II — MPKR2 — position and weather

sailwx.info

Track history (hours):
 
Tides and Currents Weather Stations Pressure Air Temp Water Temp Dewpoint Dewpoint Depression Visibility Wind Speed Wind Dir Waves Ship Positions

Rona II

Last reported at 2014-Oct-31 13:21 UTC. Time now 2014-Oct-31 18:02 UTC.
Position N 50°50' W 001°19'.

Length 22 m.

Type: Sailing vessel. MMSI: 232714000.

Date/timePositionNaut miles runAvg speedWind from/ knotsBaromVisibWave heightAir tempDewpointWater temp
2014-Oct-31 13:21N 50°50' W 001°19'  
2014-Oct-28 11:33N 50°23' W 003°27'5 5.5
2014-Oct-28 10:33N 50°27' W 003°32'1 0.5
2014-Oct-28 09:32N 50°27' W 003°32'0 0.0
2014-Oct-28 08:32N 50°27' W 003°32'0 0.0
2014-Oct-28 07:29N 50°27' W 003°32'0 0.0
2014-Oct-28 06:32N 50°27' W 003°32'0 0.0
2014-Oct-28 05:32N 50°27' W 003°32'0 0.0
2014-Oct-28 04:32N 50°27' W 003°32'0 0.0
2014-Oct-28 03:32N 50°27' W 003°32'0 0.0
2014-Oct-28 02:29N 50°27' W 003°32'0 0.0
2014-Oct-28 01:29N 50°27' W 003°32'0 0.0
2014-Oct-28 00:32N 50°27' W 003°32'0 0.0
2014-Oct-27 23:32N 50°27' W 003°32'0 0.0
2014-Oct-27 22:32N 50°27' W 003°32'0 0.0
2014-Oct-27 21:32N 50°27' W 003°32'0 0.0
2014-Oct-27 20:32N 50°27' W 003°32'0 0.0
2014-Oct-27 18:33N 50°28' W 003°32'2 1.7
2014-Oct-27 17:31N 50°27' W 003°29'5 4.5
2014-Oct-27 16:29N 50°28' W 003°22'81 1.6
2014-Oct-25 13:25N 50°51' W 001°19'  
Track history (hours):
 
Tides and Currents Weather Stations Pressure Air Temp Water Temp Dewpoint Dewpoint Depression Visibility Wind Speed Wind Dir Waves Ship Positions

Rona II

Last reported at 2014-Oct-31 13:21 UTC. Time now 2014-Oct-31 18:02 UTC.
Position N 50°50' W 001°19'.

Length 22 m.

Type: Sailing vessel. MMSI: 232714000.

Date/timePositionNaut miles runAvg speedWind from/ knotsBaromVisibWave heightAir tempDewpointWater temp
2014-Oct-31 13:21N 50°50' W 001°19'  
2014-Oct-28 11:33N 50°23' W 003°27'5 5.5
2014-Oct-28 10:33N 50°27' W 003°32'1 0.5
2014-Oct-28 09:32N 50°27' W 003°32'0 0.0
2014-Oct-28 08:32N 50°27' W 003°32'0 0.0
2014-Oct-28 07:29N 50°27' W 003°32'0 0.0
2014-Oct-28 06:32N 50°27' W 003°32'0 0.0
2014-Oct-28 05:32N 50°27' W 003°32'0 0.0
2014-Oct-28 04:32N 50°27' W 003°32'0 0.0
2014-Oct-28 03:32N 50°27' W 003°32'0 0.0
2014-Oct-28 02:29N 50°27' W 003°32'0 0.0
2014-Oct-28 01:29N 50°27' W 003°32'0 0.0
2014-Oct-28 00:32N 50°27' W 003°32'0 0.0
2014-Oct-27 23:32N 50°27' W 003°32'0 0.0
2014-Oct-27 22:32N 50°27' W 003°32'0 0.0
2014-Oct-27 21:32N 50°27' W 003°32'0 0.0
2014-Oct-27 20:32N 50°27' W 003°32'0 0.0
2014-Oct-27 18:33N 50°28' W 003°32'2 1.7
2014-Oct-27 17:31N 50°27' W 003°29'5 4.5
2014-Oct-27 16:29N 50°28' W 003°22'81 1.6
2014-Oct-25 13:25N 50°51' W 001°19'  

Dump ship's entire track history